Flight Track Log - Related Links

Times and Time Zones

All times are in EDT time to prevent confusion due to time zone crossing. See the LOF3399 flight status page for this flight to view local times or setup timezone preferences in your user account.

Time Position Orientation Groundspeed Altitude Reporting Facility
EDT Latitude Longitude Course Direction KTS MPH feet Rate Location/Type
Sat 11:17:16 AM 43.1019 -77.6919 281° West 154 177 1,000  Level Cleveland Center
Sat 11:17:58 AM 43.0750 -77.7167 214° Southwest 167 192 2,300 1,859 Climbing Cleveland Center
Sat 11:18:27 AM 43.0692 -77.7497 256° West 196 226 3,200 2,066 Climbing Cleveland Center
Sat 11:18:59 AM 43.0769 -77.7925 284° West 232 267 4,400 2,129 Climbing Cleveland Center
Sat 11:19:29 AM 43.0856 -77.8314 287° West 223 257 5,400 2,152 Climbing Cleveland Center
Sat 11:20:00 AM 43.1635 -78.1682 278° West  Level FlightAware Approximate
Sat 11:20:31 AM 43.1028 -77.9231 284° West 244 281 7,700  Level Cleveland Center
Sat 11:21:00 AM 43.1801 -78.2933 281° West  Level FlightAware Approximate
Sat 11:21:32 AM 43.1219 -78.0225 285° West 266 306 9,800  Level Cleveland Center
Sat 11:22:00 AM 43.1978 -78.4182 281° West  Level FlightAware Approximate
Sat 11:22:34 AM 43.1439 -78.1294 286° West 287 330 11,300  Level Cleveland Center
Sat 11:23:36 AM 43.1664 -78.2481 285° West 313 360 12,800 1,597 Climbing Cleveland Center
Sat 11:24:38 AM 43.1939 -78.3964 284° West 332 382 14,600 1,561 Climbing Cleveland Center
Sat 11:25:39 AM 43.2081 -78.5239 279° West 342 394 16,000 1,415 Climbing Cleveland Center
Sat 11:26:41 AM 43.2000 -78.6569 265° West 348 400 17,500 1,306 Climbing Cleveland Center
Sat 11:27:43 AM 43.1939 -78.7906 266° West 350 403 18,700 1,448 Climbing Cleveland Center
Sat 11:28:37 AM 43.1833 -78.9167 263° West 360 414 20,300 1,579 Climbing Toronto Center
Sat 11:29:37 AM 43.1667 -79.0333 259° West 360 414 21,700 1,350 Climbing Toronto Center
Sat 11:30:37 AM 43.1667 -79.1833 270° West 370 426 23,000 1,450 Climbing Toronto Center
Sat 11:31:37 AM 43.1500 -79.3333 261° West 370 426 24,600 1,450 Climbing Toronto Center
Sat 11:32:37 AM 43.1500 -79.4500 270° West 370 426 25,900 1,400 Climbing Toronto Center
Sat 11:33:37 AM 43.1333 -79.6167 262° West 370 426 27,400 1,450 Climbing Toronto Center
Sat 11:34:37 AM 43.1333 -79.7500 270° West 360 414 28,800 1,500 Climbing Toronto Center
Sat 11:35:37 AM 43.1167 -79.8833 260° West 360 414 30,400 1,500 Climbing Toronto Center
Sat 11:36:37 AM 43.1167 -80.0000 270° West 350 403 31,800 1,350 Climbing Toronto Center
Sat 11:37:37 AM 43.1000 -80.1333 260° West 350 403 33,100 1,150 Climbing Toronto Center
Sat 11:38:37 AM 43.1000 -80.2667 270° West 350 403 34,100 950 Climbing Toronto Center
Sat 11:39:37 AM 43.0833 -80.4167 261° West 350 403 35,000 900 Climbing Toronto Center
Sat 11:40:37 AM 43.0833 -80.5500 270° West 350 403 35,900 500 Climbing Toronto Center
Sat 11:41:37 AM 43.0667 -80.6833 260° West 360 414 36,000 50 Climbing Toronto Center
Sat 11:42:37 AM 43.0333 -80.8167 251° West 380 437 36,000  Level Toronto Center
Sat 11:43:37 AM 43.0333 -80.9833 270° West 400 460 36,000  Level Toronto Center
Sat 11:44:37 AM 43.0167 -81.1333 261° West 430 495 36,000  Level Toronto Center
Sat 11:45:37 AM 43.0167 -81.3000 270° West 430 495 36,000  Level Toronto Center
Sat 11:46:38 AM 43.0167 -81.4500 270° West 410 472 36,000  Level Toronto Center
Sat 11:47:37 AM 43.0167 -81.6000 270° West 400 460 36,000  Level Toronto Center
Sat 11:48:37 AM 43.0167 -81.7500 270° West 400 460 36,000  Level Toronto Center
Sat 11:49:37 AM 43.0000 -81.9167 262° West 400 460 36,000  Level Toronto Center
Sat 11:50:37 AM 43.0000 -82.0667 270° West 410 472 36,000  Level Toronto Center
Sat 11:51:37 AM 43.0000 -82.2167 270° West 410 472 36,000  Level Toronto Center
Sat 11:52:37 AM 43.0000 -82.3833 270° West 420 483 36,000  Level Toronto Center
Sat 11:53:38 AM 43.0000 -82.5333 270° West 420 483 36,000  Level Toronto Center
Sat 11:54:38 AM 42.9833 -82.6833 261° West 420 483 36,000 -350 Level Toronto Center
Sat 11:55:38 AM 42.9833 -82.8500 270° West 390 449 35,300 -850 Descending Toronto Center
Sat 11:56:38 AM 42.9833 -82.9667 270° West 350 403 34,300 -1,000 Descending Toronto Center
Sat 11:57:38 AM 42.9833 -83.1000 270° West 340 391 33,300 -1,008 Descending Toronto Center
Sat 11:58:37 AM 42.9667 -83.2333 260° West 350 403 32,300 -655 Descending Toronto Center
Sat 11:59:37 AM 42.9667 -83.3667 270° West 360 414 32,000 -150 Descending Toronto Center
Sat 12:00:37 PM 42.9667 -83.5000 270° West 370 426 32,000  Level Toronto Center
Sat 12:01:24 PM 42.9694 -83.6128 272° West 379 436 32,000  Level Chicago Center
Sat 12:01:54 PM 42.9694 -83.6936 270° West 394 453 32,000  Level Cleveland Center
Sat 12:02:56 PM 42.9572 -83.8453 264° West 402 463 32,000  Level Cleveland Center
Sat 12:03:57 PM 42.8986 -84.0086 244° Southwest 407 468 32,000  Level Cleveland Center
Sat 12:04:59 PM 42.8522 -84.1417 245° Southwest 397 457 32,000  Level Cleveland Center
Sat 12:06:01 PM 42.8169 -84.2789 251° West 394 453 32,000  Level Cleveland Center
Sat 12:07:03 PM 42.8508 -84.4289 287° West 385 443 32,000  Level Cleveland Center
Sat 12:08:05 PM 42.8936 -84.5606 294° West 384 442 32,000  Level Cleveland Center
Sat 12:09:07 PM 42.8944 -84.7064 270° West 397 457 32,000  Level Cleveland Center
Sat 12:10:09 PM 42.8742 -84.8569 260° West 401 461 32,000  Level Cleveland Center
Sat 12:10:41 PM 42.8625 -84.9503 260° West 413 475 32,000  Level Chicago Center
Sat 12:11:43 PM 42.8406 -85.1097 259° West 426 490 32,000 -823 Level Chicago Center
Sat 12:12:45 PM 42.8194 -85.2683 260° West 426 490 30,300 -1,839 Descending Chicago Center
Sat 12:13:47 PM 42.7967 -85.4278 259° West 426 490 28,200 -2,032 Descending Chicago Center
Sat 12:14:49 PM 42.7703 -85.5903 258° West 435 501 26,100 -1,984 Descending Chicago Center
Sat 12:15:51 PM 42.7408 -85.7556 256° West 442 509 24,100 -2,177 Descending Chicago Center
Sat 12:16:53 PM 42.7064 -85.9464 256° West 435 501 21,600 -1,984 Descending Chicago Center
Sat 12:17:55 PM 42.6786 -86.0989 256° West 419 482 20,000 -774 Descending Chicago Center
Sat 12:18:57 PM 42.6500 -86.2508 256° West 417 480 20,000 -242 Level Chicago Center
Sat 12:19:59 PM 42.6231 -86.3964 256° West 403 464 19,500 -1,065 Descending Chicago Center
Sat 12:21:01 PM 42.5956 -86.5417 256° West 402 463 17,800 -1,742 Descending Chicago Center
Sat 12:22:03 PM 42.5678 -86.6869 255° West 400 460 15,900 -1,839 Descending Chicago Center
Sat 12:23:05 PM 42.5344 -86.8233 252° West 385 443 14,000 -2,016 Descending Chicago Center
Sat 12:24:08 PM 42.4917 -86.9803 250° West 376 433 11,700 -1,440 Descending Chicago Center
Sat 12:25:10 PM 42.4558 -87.1089 249° West 367 422 11,000 -339 Descending Chicago Center
Sat 12:26:12 PM 42.4200 -87.2397 250° West 368 423 11,000  Level Chicago Center
Sat 12:27:14 PM 42.3850 -87.3703 250° West 368 423 11,000  Level Chicago Center
Sat 12:28:16 PM 42.3439 -87.5136 249° West 366 421 11,000 -194 Level Chicago Center
Sat 12:29:18 PM 42.2650 -87.6114 223° Southwest 359 413 10,600 -484 Descending Chicago Center
Sat 12:30:20 PM 42.1961 -87.6856 219° Southwest 313 360 10,000 -774 Descending Chicago Center
Sat 12:31:22 PM 42.1381 -87.7458 218° Southwest 269 310 9,000 -968 Descending Chicago Center
Sat 12:32:24 PM 42.0914 -87.8344 235° Southwest 287 330 8,000 -968 Descending Chicago Center
Sat 12:33:26 PM 42.0911 -87.9333 270° West 271 312 7,000 -581 Descending Chicago Center
Sat 12:34:28 PM 42.0908 -88.0261 270° West 239 275 6,800 -629 Descending Chicago Center
Sat 12:35:30 PM 42.0908 -88.1142 270° West 235 270 5,700 -1,306 Descending Chicago Center
Sat 12:36:32 PM 42.0836 -88.2031 264° West 226 260 4,100 -823 Descending Chicago Center
Sat 12:37:34 PM 42.0358 -88.1889 168° South 186 214 4,000 -48 Descending Chicago Center
Sat 12:38:37 PM 42.0103 -88.1228 117° Southeast 184 212 4,000 -336 Level Chicago Center
Sat 12:39:39 PM 42.0011 -88.0606 101° East 172 198 3,300 -1,065 Descending Chicago Center
Sat 12:40:41 PM 42.0019 -87.9911 89° East 172 198 1,800 -1,113 Descending Chicago Center
Sat 12:41:43 PM 42.0019 -87.9433 90° East 135 155 1,000 -435 Descending Chicago Center
Sat 12:42:45 PM 42.0017 -87.8969 90° East 135 155 900 -97 Descending Chicago Center

Login

Don't have an account? Register now (free) for customized features, flight alerts, and more!